createdAt,value
2022-10-17T00:01:04.810Z,10.02
2022-10-17T00:03:33.455Z,13.25
2022-10-17T00:06:08.816Z,9.90
2022-10-17T00:08:37.467Z,9.63
2022-10-17T00:11:12.338Z,10.20
2022-10-17T00:13:40.039Z,10.63
2022-10-17T00:16:07.868Z,11.50
2022-10-17T00:18:35.264Z,11.07
2022-10-17T00:21:03.095Z,10.75
2022-10-17T00:23:30.676Z,12.02
2022-10-17T00:26:03.047Z,13.77
2022-10-17T00:28:32.114Z,9.80
2022-10-17T00:31:02.442Z,11.63
2022-10-17T00:33:31.054Z,11.32
2022-10-17T00:36:06.736Z,14.05
2022-10-17T00:38:36.741Z,10.82
2022-10-17T00:41:04.660Z,12.15
2022-10-17T00:43:50.408Z,12.17
2022-10-17T00:46:18.291Z,9.85
2022-10-17T00:48:46.291Z,10.23
2022-10-17T00:51:14.711Z,9.75
2022-10-17T00:53:42.611Z,9.23
2022-10-17T00:56:10.806Z,12.03
2022-10-17T00:58:38.234Z,12.60
2022-10-17T01:01:05.960Z,9.40
2022-10-17T01:03:33.403Z,10.30
2022-10-17T01:06:00.815Z,10.93
2022-10-17T01:08:28.696Z,12.10
2022-10-17T01:11:08.284Z,13.00
2022-10-17T01:13:46.789Z,9.77
2022-10-17T01:16:23.679Z,11.95
2022-10-17T01:19:16.793Z,12.05
2022-10-17T01:21:54.536Z,12.10
2022-10-17T01:24:37.896Z,12.73
2022-10-17T01:27:23.819Z,11.77
2022-10-17T01:30:26.114Z,11.32
2022-10-17T01:33:04.677Z,10.32
2022-10-17T01:35:40.546Z,11.63
2022-10-17T01:38:16.377Z,13.70
2022-10-17T01:41:02.861Z,12.75
2022-10-17T01:43:47.240Z,11.02
2022-10-17T01:46:41.400Z,11.57
2022-10-17T01:49:13.185Z,13.03
2022-10-17T01:51:47.674Z,11.55
2022-10-17T01:54:21.534Z,11.73
2022-10-17T01:56:53.422Z,13.27
2022-10-17T01:59:25.584Z,11.55
2022-10-17T02:01:56.083Z,9.63
2022-10-17T02:04:25.215Z,10.77
2022-10-17T02:06:52.643Z,11.38
2022-10-17T02:09:25.595Z,9.65
2022-10-17T02:12:15.181Z,12.52
2022-10-17T02:15:11.097Z,15.07
2022-10-17T02:17:50.597Z,13.70
2022-10-17T02:20:33.272Z,14.27
2022-10-17T02:23:00.990Z,12.98
2022-10-17T02:25:55.028Z,12.37
2022-10-17T02:28:44.226Z,9.77
2022-10-17T02:31:23.850Z,11.77
2022-10-17T02:33:58.030Z,12.63
2022-10-17T02:36:41.179Z,10.32
2022-10-17T02:39:10.451Z,11.20
2022-10-17T02:41:40.300Z,12.07
2022-10-17T02:44:08.789Z,10.40
2022-10-17T02:46:38.621Z,10.80
2022-10-17T02:49:10.668Z,11.30
2022-10-17T02:51:50.848Z,13.07
2022-10-17T02:54:30.364Z,16.47
2022-10-17T02:57:46.576Z,12.43
2022-10-17T03:00:16.708Z,9.77
2022-10-17T03:02:50.243Z,10.68
2022-10-17T03:05:21.351Z,11.35
2022-10-17T03:07:49.063Z,10.67
2022-10-17T03:10:17.107Z,13.10
2022-10-17T03:12:45.166Z,12.60
2022-10-17T03:15:13.572Z,18.75
2022-10-17T03:17:41.147Z,11.85
2022-10-17T03:20:09.792Z,12.80
2022-10-17T03:22:37.231Z,11.45
2022-10-17T03:25:05.106Z,13.05
2022-10-17T03:27:35.368Z,12.70
2022-10-17T03:30:03.284Z,10.30
2022-10-17T03:32:33.721Z,15.00
2022-10-17T03:35:02.293Z,12.80
2022-10-17T03:37:30.160Z,13.30
2022-10-17T03:39:57.779Z,11.95
2022-10-17T03:42:25.804Z,14.93
2022-10-17T03:44:53.192Z,14.97
2022-10-17T03:47:20.994Z,14.75
2022-10-17T03:49:49.673Z,12.60
2022-10-17T03:52:17.875Z,12.20
2022-10-17T03:54:45.660Z,12.93
2022-10-17T03:57:13.398Z,13.03
2022-10-17T03:59:40.798Z,12.90
2022-10-17T04:02:08.473Z,13.13
2022-10-17T04:04:36.527Z,12.57
2022-10-17T04:07:04.015Z,13.38
2022-10-17T04:09:31.442Z,15.47
2022-10-17T04:12:00.350Z,13.20
2022-10-17T04:14:27.856Z,16.00
2022-10-17T04:16:55.405Z,18.40
2022-10-17T04:19:23.156Z,15.40
2022-10-17T04:21:50.698Z,13.87
2022-10-17T04:24:18.228Z,17.60
2022-10-17T04:26:46.109Z,12.73
2022-10-17T04:29:13.808Z,13.95
2022-10-17T04:31:41.806Z,14.60
2022-10-17T04:34:11.008Z,12.23
2022-10-17T04:36:38.402Z,13.52
2022-10-17T04:39:06.037Z,13.62
2022-10-17T04:41:34.021Z,13.27
2022-10-17T04:44:02.645Z,12.57
2022-10-17T04:46:33.625Z,12.77
2022-10-17T04:49:01.396Z,13.55
2022-10-17T04:51:29.342Z,16.65
2022-10-17T04:53:58.160Z,13.38
2022-10-17T04:56:26.156Z,13.00
2022-10-17T04:58:53.827Z,10.50
2022-10-17T05:01:23.752Z,12.93
2022-10-17T05:03:52.257Z,12.82
2022-10-17T05:06:23.086Z,16.12
2022-10-17T05:08:53.325Z,16.20
2022-10-17T05:11:29.044Z,10.67
2022-10-17T05:13:59.932Z,12.70
2022-10-17T05:16:28.739Z,15.15
2022-10-17T05:18:58.328Z,12.75
2022-10-17T05:21:29.529Z,24.25
2022-10-17T05:23:57.919Z,13.30
2022-10-17T05:26:26.471Z,14.07
2022-10-17T05:28:54.835Z,13.05
2022-10-17T05:31:22.736Z,14.23
2022-10-17T05:33:50.176Z,13.80
2022-10-17T05:36:18.611Z,13.90
2022-10-17T05:38:51.238Z,15.73
2022-10-17T05:41:20.498Z,13.77
2022-10-17T05:43:48.319Z,12.63
2022-10-17T05:46:16.605Z,12.00
2022-10-17T05:48:44.608Z,13.03
2022-10-17T05:51:12.402Z,13.48
2022-10-17T05:53:42.187Z,12.43
2022-10-17T05:56:12.524Z,12.82
2022-10-17T05:58:50.853Z,13.40
2022-10-17T06:01:21.044Z,10.43
2022-10-17T06:03:48.833Z,12.43
2022-10-17T06:06:17.546Z,13.85
2022-10-17T06:08:46.298Z,16.05
2022-10-17T06:11:14.548Z,12.20
2022-10-17T06:13:42.238Z,12.67
2022-10-17T06:16:10.387Z,14.60
2022-10-17T06:18:39.201Z,13.20
2022-10-17T06:21:11.799Z,13.18
2022-10-17T06:23:40.071Z,12.30
2022-10-17T06:26:07.763Z,11.27
2022-10-17T06:28:36.099Z,13.13
2022-10-17T06:31:06.325Z,12.05
2022-10-17T06:33:34.200Z,11.98
2022-10-17T06:36:03.025Z,12.02
2022-10-17T06:38:31.748Z,13.10
2022-10-17T06:41:08.856Z,11.50
2022-10-17T06:43:41.053Z,11.70
2022-10-17T06:46:16.403Z,11.25
2022-10-17T06:48:46.532Z,12.85
2022-10-17T06:51:14.090Z,10.47
2022-10-17T06:53:42.754Z,11.32
2022-10-17T06:56:11.047Z,12.07
2022-10-17T06:58:40.311Z,12.13
2022-10-17T07:01:13.604Z,12.52
2022-10-17T07:03:41.708Z,11.67
2022-10-17T07:06:11.024Z,14.00
2022-10-17T07:08:44.051Z,20.35
2022-10-17T07:11:15.127Z,11.77
2022-10-17T07:13:43.212Z,12.27
2022-10-17T07:16:11.675Z,11.43
2022-10-17T07:18:40.367Z,11.63
2022-10-17T07:21:08.840Z,11.38
2022-10-17T07:23:37.784Z,11.10
2022-10-17T07:26:13.931Z,14.77
2022-10-17T07:28:44.128Z,13.33
2022-10-17T07:31:16.992Z,14.43
2022-10-17T07:36:18.792Z,14.52
2022-10-17T07:38:46.882Z,13.75
2022-10-17T07:41:17.926Z,13.93
2022-10-17T07:43:49.248Z,10.23
2022-10-17T07:46:17.240Z,14.68
2022-10-17T07:48:45.212Z,12.23
2022-10-17T07:51:13.035Z,14.10
2022-10-17T07:53:42.758Z,11.00
2022-10-17T07:56:13.122Z,11.23
2022-10-17T07:58:40.537Z,12.07
2022-10-17T08:01:14.741Z,11.12
2022-10-17T08:03:48.665Z,13.77
2022-10-17T08:06:16.152Z,14.97
2022-10-17T08:08:43.940Z,10.80
2022-10-17T08:11:13.229Z,12.93
2022-10-17T08:13:41.309Z,10.70
2022-10-17T08:16:12.069Z,11.00
2022-10-17T08:18:41.094Z,11.53
2022-10-17T08:21:09.843Z,11.20
2022-10-17T08:23:37.719Z,11.23
2022-10-17T08:26:10.514Z,11.73
2022-10-17T08:28:40.306Z,12.95
2022-10-17T08:31:11.330Z,13.33
2022-10-17T08:33:39.750Z,11.75
2022-10-17T08:36:09.104Z,10.35
2022-10-17T08:38:41.438Z,13.62
2022-10-17T08:41:29.963Z,13.15
2022-10-17T08:44:12.010Z,11.30
2022-10-17T08:46:42.391Z,10.95
2022-10-17T08:49:16.586Z,11.63
2022-10-17T08:51:51.591Z,14.35
2022-10-17T08:54:25.492Z,13.98
2022-10-17T08:56:55.394Z,12.27
2022-10-17T08:59:28.576Z,14.07
2022-10-17T09:02:14.042Z,11.63
2022-10-17T09:05:23.892Z,12.40
2022-10-17T09:08:31.972Z,9.85
2022-10-17T09:11:24.044Z,12.23
2022-10-17T09:14:08.027Z,22.55
2022-10-17T09:16:53.436Z,11.30
2022-10-17T09:19:25.963Z,13.55
2022-10-17T09:22:02.026Z,14.15
2022-10-17T09:24:41.039Z,13.27
2022-10-17T09:27:25.885Z,16.90
2022-10-17T09:30:21.380Z,14.65
2022-10-17T09:32:58.168Z,12.70
2022-10-17T09:35:29.055Z,13.32
2022-10-17T09:37:56.543Z,11.33
2022-10-17T09:40:33.816Z,11.95
2022-10-17T09:43:05.230Z,9.43
2022-10-17T09:45:37.831Z,11.12
2022-10-17T09:48:18.641Z,11.10
2022-10-17T09:50:53.882Z,12.87
2022-10-17T09:53:38.405Z,11.50
2022-10-17T09:56:12.987Z,11.52
2022-10-17T09:58:47.878Z,10.20
2022-10-17T10:01:24.021Z,11.20
2022-10-17T10:04:09.319Z,9.97
2022-10-17T10:06:37.337Z,10.13
2022-10-17T10:09:07.034Z,10.20
2022-10-17T10:11:51.283Z,9.48
2022-10-17T10:14:34.129Z,8.77
2022-10-17T10:17:03.825Z,9.37
2022-10-17T10:19:37.303Z,10.23
2022-10-17T10:22:14.770Z,10.50
2022-10-17T10:24:42.530Z,10.45
2022-10-17T10:27:18.101Z,10.38
2022-10-17T10:29:51.378Z,8.17
2022-10-17T10:32:30.007Z,7.53
2022-10-17T10:35:16.126Z,8.85
2022-10-17T10:37:46.438Z,8.45
2022-10-17T10:40:29.451Z,9.35
2022-10-17T10:43:04.188Z,9.40
2022-10-17T10:45:47.461Z,11.00
2022-10-17T10:48:18.704Z,9.70
2022-10-17T10:50:49.387Z,11.73
2022-10-17T10:53:26.063Z,8.02
2022-10-17T10:56:19.310Z,8.53
2022-10-17T10:58:54.401Z,8.73
2022-10-17T11:01:28.110Z,8.43
2022-10-17T11:04:26.513Z,6.62
2022-10-17T11:07:02.194Z,6.90
2022-10-17T11:09:55.192Z,6.97
2022-10-17T11:12:28.126Z,7.75
2022-10-17T11:15:10.048Z,6.32
2022-10-17T11:17:57.843Z,5.40
2022-10-17T11:20:36.876Z,4.97
2022-10-17T11:23:36.116Z,5.43
2022-10-17T11:26:09.135Z,5.90
2022-10-17T11:28:37.482Z,5.05
2022-10-17T11:31:18.440Z,6.87
2022-10-17T11:33:54.460Z,5.97
2022-10-17T11:36:28.293Z,6.50
2022-10-17T11:39:02.479Z,7.70
2022-10-17T11:41:41.979Z,6.72
2022-10-17T11:44:18.579Z,6.57
2022-10-17T11:46:51.751Z,6.75
2022-10-17T11:49:24.989Z,11.03
2022-10-17T11:52:03.393Z,8.30
2022-10-17T11:54:31.243Z,7.65
2022-10-17T11:57:07.135Z,7.32
2022-10-17T12:00:03.232Z,6.72
2022-10-17T12:02:37.792Z,6.03
2022-10-17T12:05:34.573Z,5.53
2022-10-17T12:08:14.006Z,5.97
2022-10-17T12:11:14.955Z,5.20
2022-10-17T12:13:51.983Z,7.53
2022-10-17T12:16:23.398Z,10.40
2022-10-17T12:19:10.684Z,6.62
2022-10-17T12:21:58.626Z,6.30
2022-10-17T12:24:36.128Z,7.65
2022-10-17T12:27:32.036Z,6.12
2022-10-17T12:30:07.532Z,5.60
2022-10-17T12:32:53.385Z,12.60
2022-10-17T12:35:25.391Z,7.20
2022-10-17T12:37:56.216Z,9.90
2022-10-17T12:40:34.927Z,6.05
2022-10-17T12:43:23.522Z,7.33
2022-10-17T12:45:52.188Z,9.25
2022-10-17T12:48:38.188Z,4.97
2022-10-17T12:51:35.175Z,7.12
2022-10-17T12:54:12.843Z,7.57
2022-10-17T12:56:44.336Z,5.23
2022-10-17T12:59:17.729Z,4.30
2022-10-17T13:01:48.031Z,6.15
2022-10-17T13:04:16.385Z,5.82
2022-10-17T13:06:53.404Z,8.15
2022-10-17T13:09:35.407Z,5.40
2022-10-17T13:12:06.499Z,5.87
2022-10-17T13:14:34.932Z,6.07
2022-10-17T13:17:07.556Z,7.32
2022-10-17T13:19:44.374Z,4.95
2022-10-17T13:22:17.356Z,10.03
2022-10-17T13:24:45.600Z,6.00
2022-10-17T13:27:31.415Z,5.12
2022-10-17T13:30:02.146Z,5.93
2022-10-17T13:32:39.696Z,6.30
2022-10-17T13:35:17.249Z,7.23
2022-10-17T13:37:51.537Z,8.18
2022-10-17T13:40:44.599Z,7.57
2022-10-17T13:43:19.457Z,5.22
2022-10-17T13:45:53.371Z,9.57
2022-10-17T13:48:24.838Z,8.77
2022-10-17T13:50:59.120Z,5.85
2022-10-17T13:53:42.503Z,5.70
2022-10-17T13:56:27.736Z,6.00
2022-10-17T13:58:59.232Z,7.37
2022-10-17T14:01:29.130Z,11.60
2022-10-17T14:04:08.326Z,4.93
2022-10-17T14:06:47.684Z,6.82
2022-10-17T14:09:24.575Z,7.53
2022-10-17T14:12:11.141Z,5.40
2022-10-17T14:15:05.212Z,4.97
2022-10-17T14:17:30.138Z,8.52
2022-10-17T14:20:34.379Z,11.60
2022-10-17T14:23:17.621Z,7.68
2022-10-17T14:25:41.218Z,5.78
2022-10-17T14:28:14.895Z,5.70
2022-10-17T14:31:02.947Z,6.55
2022-10-17T14:33:31.948Z,6.32
2022-10-17T14:36:02.591Z,4.93
2022-10-17T14:38:30.788Z,5.03
2022-10-17T14:44:07.079Z,7.28
2022-10-17T14:46:36.235Z,7.10
2022-10-17T14:49:19.436Z,13.18
2022-10-17T14:52:18.215Z,6.07
2022-10-17T14:54:50.691Z,4.77
2022-10-17T14:57:33.415Z,7.00
2022-10-17T15:00:01.257Z,8.57
2022-10-17T15:02:30.762Z,6.05
2022-10-17T15:04:58.551Z,8.98
2022-10-17T15:07:26.291Z,7.03
2022-10-17T15:09:54.137Z,5.53
2022-10-17T15:12:24.818Z,4.40
2022-10-17T15:14:53.498Z,9.88
2022-10-17T15:17:31.506Z,7.03
2022-10-17T15:19:59.258Z,6.20
2022-10-17T15:22:26.886Z,4.53
2022-10-17T15:24:54.394Z,5.60
2022-10-17T15:27:24.986Z,5.62
2022-10-17T15:29:53.168Z,7.68
2022-10-17T15:32:20.619Z,7.43
2022-10-17T15:34:48.477Z,5.53
2022-10-17T15:37:22.844Z,9.43
2022-10-17T15:39:54.337Z,14.10
2022-10-17T15:42:26.643Z,10.43
2022-10-17T15:44:54.897Z,8.93
2022-10-17T15:47:27.334Z,7.18
2022-10-17T15:49:55.863Z,13.85
2022-10-17T15:52:23.755Z,14.50
2022-10-17T15:54:51.822Z,10.27
2022-10-17T15:57:23.279Z,10.70
2022-10-17T15:59:51.895Z,10.73
2022-10-17T16:02:21.382Z,16.02
2022-10-17T16:04:50.460Z,8.05
2022-10-17T16:07:20.887Z,11.32
2022-10-17T16:09:48.706Z,15.63
2022-10-17T16:12:29.128Z,9.80
2022-10-17T16:14:57.365Z,11.32
2022-10-17T16:17:24.836Z,6.65
2022-10-17T16:19:52.239Z,6.28
2022-10-17T16:22:32.670Z,6.40
2022-10-17T16:25:07.809Z,11.18
2022-10-17T16:27:37.376Z,10.65
2022-10-17T16:30:07.273Z,7.87
2022-10-17T16:32:34.977Z,8.45
2022-10-17T16:35:02.492Z,6.20
2022-10-17T16:37:29.968Z,7.30
2022-10-17T16:39:57.732Z,6.82
2022-10-17T16:42:25.125Z,11.77
2022-10-17T16:44:52.524Z,9.93
2022-10-17T16:47:20.244Z,10.03
2022-10-17T16:49:47.652Z,10.55
2022-10-17T16:52:15.142Z,7.80
2022-10-17T16:54:42.802Z,8.40
2022-10-17T16:57:10.286Z,7.37
2022-10-17T16:59:37.722Z,13.03
2022-10-17T17:02:05.427Z,7.93
2022-10-17T17:04:32.873Z,11.15
2022-10-17T17:07:00.487Z,13.02
2022-10-17T17:09:28.248Z,8.90
2022-10-17T17:11:55.623Z,10.93
2022-10-17T17:14:23.046Z,9.23
2022-10-17T17:16:50.743Z,9.68
2022-10-17T17:19:18.167Z,5.85
2022-10-17T17:21:50.187Z,14.00
2022-10-17T17:24:21.158Z,10.67
2022-10-17T17:26:54.114Z,7.62
2022-10-17T17:29:23.121Z,10.70
2022-10-17T17:31:50.703Z,5.28
2022-10-17T17:34:18.468Z,10.18
2022-10-17T17:36:49.196Z,6.90
2022-10-17T17:39:17.131Z,9.80
2022-10-17T17:41:45.739Z,7.87
2022-10-17T17:44:16.672Z,6.50
2022-10-17T17:46:45.321Z,5.97
2022-10-17T17:49:13.169Z,6.17
2022-10-17T17:51:41.908Z,9.05
2022-10-17T17:54:11.627Z,6.45
2022-10-17T17:56:39.899Z,9.60
2022-10-17T17:59:07.323Z,10.52
2022-10-17T18:01:39.108Z,8.20
2022-10-17T18:04:08.987Z,6.97
2022-10-17T18:06:37.694Z,8.23
2022-10-17T18:09:06.962Z,6.07
2022-10-17T18:11:35.554Z,7.70
2022-10-17T18:14:05.953Z,7.47
2022-10-17T18:16:35.322Z,7.72
2022-10-17T18:19:09.077Z,6.47
2022-10-17T18:21:37.210Z,6.18
2022-10-17T18:24:05.320Z,7.72
2022-10-17T18:26:33.290Z,10.77
2022-10-17T18:29:00.950Z,9.98
2022-10-17T18:31:32.040Z,6.47
2022-10-17T18:34:03.100Z,6.97
2022-10-17T18:36:32.140Z,6.78
2022-10-17T18:39:00.884Z,5.53
2022-10-17T18:41:28.910Z,6.07
2022-10-17T18:43:57.545Z,8.02
2022-10-17T18:46:36.002Z,7.10
2022-10-17T18:49:03.851Z,5.72
2022-10-17T18:51:31.551Z,6.97
2022-10-17T18:53:59.016Z,7.95
2022-10-17T18:56:26.970Z,6.78
2022-10-17T18:58:55.282Z,6.75
2022-10-17T19:01:25.935Z,5.90
2022-10-17T19:03:55.970Z,9.80
2022-10-17T19:06:31.776Z,7.25
2022-10-17T19:09:01.077Z,9.13
2022-10-17T19:11:30.610Z,6.93
2022-10-17T19:14:01.672Z,11.90
2022-10-17T19:16:34.971Z,8.27
2022-10-17T19:19:10.852Z,7.15
2022-10-17T19:21:39.521Z,8.32
2022-10-17T19:24:10.744Z,7.40
2022-10-17T19:26:39.842Z,11.73
2022-10-17T19:29:07.484Z,10.57
2022-10-17T19:31:36.053Z,5.57
2022-10-17T19:34:04.432Z,10.85
2022-10-17T19:36:34.363Z,10.85
2022-10-17T19:39:07.096Z,8.50
2022-10-17T19:41:36.402Z,8.10
2022-10-17T19:44:03.927Z,6.15
2022-10-17T19:46:32.177Z,7.90
2022-10-17T19:49:00.036Z,7.75
2022-10-17T19:51:29.087Z,9.77
2022-10-17T19:54:00.408Z,8.27
2022-10-17T19:56:31.562Z,6.05
2022-10-17T19:58:59.298Z,5.53
2022-10-17T20:01:30.669Z,12.65
2022-10-17T20:03:58.459Z,6.22
2022-10-17T20:06:26.171Z,7.00
2022-10-17T20:08:54.108Z,8.30
2022-10-17T20:11:24.459Z,6.85
2022-10-17T20:13:53.015Z,7.87
2022-10-17T20:16:23.709Z,9.98
2022-10-17T20:18:54.584Z,5.97
2022-10-17T20:21:27.332Z,8.77
2022-10-17T20:23:55.500Z,7.68
2022-10-17T20:26:36.565Z,5.55
2022-10-17T20:29:11.241Z,8.23
2022-10-17T20:31:40.631Z,8.43
2022-10-17T20:34:11.960Z,6.10
2022-10-17T20:36:39.659Z,10.27
2022-10-17T20:39:07.509Z,12.27
2022-10-17T20:41:35.364Z,11.20
2022-10-17T20:44:03.135Z,5.93
2022-10-17T20:46:36.952Z,8.80
2022-10-17T20:49:09.872Z,10.10
2022-10-17T20:51:37.372Z,8.73
2022-10-17T20:54:05.169Z,8.60
2022-10-17T20:56:34.497Z,7.50
2022-10-17T20:59:07.942Z,11.25
2022-10-17T21:01:36.165Z,7.65
2022-10-17T21:06:53.501Z,7.68
2022-10-17T21:09:21.823Z,11.37
2022-10-17T21:11:52.545Z,8.15
2022-10-17T21:14:21.019Z,10.43
2022-10-17T21:16:48.895Z,8.02
2022-10-17T21:19:16.691Z,14.30
2022-10-17T21:21:46.680Z,8.37
2022-10-17T21:24:18.047Z,6.72
2022-10-17T21:26:47.410Z,8.40
2022-10-17T21:29:15.280Z,8.40
2022-10-17T21:31:44.806Z,9.32
2022-10-17T21:34:24.614Z,6.40
2022-10-17T21:36:52.936Z,9.95
2022-10-17T21:39:21.914Z,7.65
2022-10-17T21:41:49.366Z,7.93
2022-10-17T21:44:22.709Z,11.25
2022-10-17T21:46:51.409Z,6.37
2022-10-17T21:49:21.376Z,6.50
2022-10-17T21:51:49.793Z,9.65
2022-10-17T21:54:19.600Z,8.38
2022-10-17T21:56:47.183Z,8.85
2022-10-17T21:59:14.570Z,9.27
2022-10-17T22:01:44.939Z,8.85
2022-10-17T22:04:15.487Z,9.57
2022-10-17T22:06:44.651Z,7.87
2022-10-17T22:09:23.820Z,8.73
2022-10-17T22:11:54.947Z,9.43
2022-10-17T22:14:25.031Z,10.35
2022-10-17T22:16:53.223Z,9.35
2022-10-17T22:19:26.017Z,7.87
2022-10-17T22:21:54.756Z,13.15
2022-10-17T22:24:22.333Z,14.57
2022-10-17T22:26:50.324Z,9.63
2022-10-17T22:29:18.113Z,8.40
2022-10-17T22:31:45.885Z,8.18
2022-10-17T22:34:14.746Z,10.98
2022-10-17T22:36:42.901Z,8.10
2022-10-17T22:39:11.303Z,8.07
2022-10-17T22:41:38.819Z,8.50
2022-10-17T22:44:06.773Z,9.57
2022-10-17T22:46:34.623Z,9.02
2022-10-17T22:49:02.268Z,7.63
2022-10-17T22:51:29.957Z,10.10
2022-10-17T22:53:57.432Z,6.93
2022-10-17T22:56:24.913Z,11.70
2022-10-17T22:58:52.708Z,10.45
2022-10-17T23:01:22.946Z,8.17
2022-10-17T23:03:51.636Z,7.53
2022-10-17T23:06:20.216Z,7.35
2022-10-17T23:08:47.990Z,9.55
2022-10-17T23:11:15.691Z,9.02
2022-10-17T23:13:43.351Z,9.97
2022-10-17T23:16:10.741Z,8.77
2022-10-17T23:18:38.947Z,8.75
2022-10-17T23:21:07.111Z,10.77
2022-10-17T23:23:34.575Z,9.18
2022-10-17T23:26:09.789Z,8.43
2022-10-17T23:28:38.571Z,10.02
2022-10-17T23:31:13.051Z,9.15
2022-10-17T23:33:41.516Z,10.27
2022-10-17T23:36:11.064Z,13.07
2022-10-17T23:38:40.038Z,10.63
2022-10-17T23:41:08.709Z,12.93
2022-10-17T23:43:36.386Z,11.27
2022-10-17T23:46:05.836Z,12.18
2022-10-17T23:48:33.995Z,11.70
2022-10-17T23:51:01.607Z,12.00
2022-10-17T23:53:29.012Z,8.82
2022-10-17T23:55:56.695Z,9.27
2022-10-17T23:58:24.374Z,11.88
